Pine Bluff, AR

02:37 PM CST am 23. Februar 2017 (GMT -0600)
Pine Bluff | | Change Station

Höhe 253 ft 34.19 °N, 92.03 °W | Updated 15 seconds ago

Heiter
Heiter
79.5 °F
gefühlte 80 °F
N
5.8
Wind Wechselnd Wind aus Süd-Südwest

Heute
Max. -- | schwach -- °F
--% Regenrisiko
Gestern
Max. -- | schwach -- °F
Precip. -- inch
Druck 29.67 inch
Sichtweite 10.0 Meilen
Wolken Heiter
Hitzeindex 80 °F
Taupunkt 60 °F
Feuchtigkeit 51%
Regen 0.00 inch
Schneehöhe Nicht verfügbar..
6:43 AM 5:59 PM
Letztes Viertel, 9% visible
METAR KPBF 231953Z AUTO 18012KT 10SM CLR 24/14 A2967 RMK AO2 SLP046 T02440139
Druck 29.67 inch
Sichtweite 10.0 Meilen
Wolken Heiter
Hitzeindex 80 °F
Taupunkt 60 °F
Feuchtigkeit 51%
Regen 0.00 inch
Schneehöhe Nicht verfügbar..
6:43 AM 5:59 PM
Letztes Viertel, 9% visible
METAR KPBF 231953Z AUTO 18012KT 10SM CLR 24/14 A2967 RMK AO2 SLP046 T02440139

Get Your Daily Forecast Email!

Thanks for signing up!

Be on the lookout for a verification email in your inbox.

You'll start receiving the daily forecast at 8 AM.

×

10-Day Weather Forecast

Almanac

Astronomie

Feb. 23, 2017 Aufgang Untergang
Genaue Zeit
Bürgerliche Dämmerung
Nautische Dämmerung
Astronomische Dämmerung
Mond
Länge des sichtbaren Lichts
Tageslänge
Tomorrow will be .
, % of the Moon is Illuminated

Heutige Rekorde

State Highs State Lows

Community

WunderPhotos

Upload Photos

1,962,540 Fotos hochgeladen!

WunderBlog® & News

Nearby

Luftqualität

  Luftqualität LQ Index Schadstoff
Not available.

Schneehöhe

Station Depth Höhe

Erdbebenaktivität

Stadt Distance Mag. Time & Date
Minimum magnitude displayed is 2.5.

küstennahe Wassertemperaturen

Ort Temperatur

Stations

Wetterstationen in der Umgebung

Stationsstandort Temp. Windchill Taupunkt Feuchtigkeit Wind Precip. Höhe Aktualisiert Art
                   

Watches & Warnings

There are currently no watches in effect.